Argos, Indiana
Current Conditions -  °F | °C
As of 3:35 PM on Monday 26 Jan 2015 (Local Time) from KRCR Reporting Station
Clear Clear  
Wind Chill: 21°   Ceiling: Unl
Heat Index: 27°   Visibility: 10mi
Dew Point: 18°   Wind: 5mph
Humidity: 69%   Direction: 210°SSW
Pressure: 29.91"   Gusts: NA
Location:  41.23°N, 86.24°W
Report Text: KRCR 262035Z AUTO 21004KT 10SM CLR M03/M08 A2991 RMK AO2
Loading
Personal Weather Stations






























Interactive Weather Map New forecast layout! Learn more

10-Day Weather Forecast

Advertisements
Track Severe Weather on mobile